Harrisonburg, VA

2:20 PM EST on January 24, 2017 (GMT -0500)
Pleasant Valley Station | | Change Station

Elev 1227 ft 38.40 °N, 78.90 °W | Updated 13 seconds ago

Mostly Cloudy
Mostly Cloudy
48.0 °F
Feels Like 44 °F
N
8.9
Wind Variable Wind from WNW
Gusts 14.0 mph

Today
High -- | Low -- °F
--% Chance of Precip.
Yesterday
High -- | Low -- °F
Precip. -- in
Pressure 29.62 in
Visibility 10.0 miles
Clouds Mostly Cloudy 5000 ft
Mostly Cloudy 6500 ft
Overcast 8500 ft
Windchill 44 °F
Dew Point 37 °F
Humidity 66%
Rainfall 0.00 in
Snow Depth Not available.
7:26 AM 5:29 PM
Waning Crescent, 10% visible
METAR KSHD 241915Z AUTO 29013G19KT 10SM BKN050 BKN065 OVC085 09/01 A2962 RMK AO2 T00860011
Pressure 29.62 in
Visibility 10.0 miles
Clouds Mostly Cloudy 5000 ft
Mostly Cloudy 6500 ft
Overcast 8500 ft
Windchill 44 °F
Dew Point 37 °F
Humidity 66%
Rainfall 0.00 in
Snow Depth Not available.
7:26 AM 5:29 PM
Waning Crescent, 10% visible
METAR KSHD 241915Z AUTO 29013G19KT 10SM BKN050 BKN065 OVC085 09/01 A2962 RMK AO2 T00860011

Get Your Daily Forecast Email!

Thanks for signing up!

Be on the lookout for a verification email in your inbox.

You'll start receiving the daily forecast at 8 AM.

×

10-Day Weather Forecast

Almanac

Astronomy

Jan. 24, 2017 Rise Set
Actual Time
Civil Twilight
Nautical Twilight
Astronomical Twilight
Moon
Length of Visible Light
Length of Day
Tomorrow will be .
, % of the Moon is Illuminated

Today's Extremes

State Highs State Lows

Community

WunderPhotos

Upload Photos

1,962,540 photos uploaded!

WunderBlog® & News

Nearby

Air Quality

  Air Quality AQ Index Pollutant
Not available.

Snow Depth

Station Depth Elevation

Earthquake Activity

City Distance Mag. Time & Date
Minimum magnitude displayed is 2.5.

Coastal Water Temperatures

Place Temperature

Stations

Nearby Weather Stations

Station Location Temp. Windchill Dew Point Humidity Wind Precip. Elev Updated Type
                   

Watches & Warnings

There are currently no watches in effect.